Time;durP1;ratioP1;P1;durP2;ratioP2;P2;SDS_P1;SDS_P2;PMS_P1;PMS_P2;Temp;Humidity;BMP_temperature;BMP_pressure;BME280_temperature;BME280_humidity;BME280_pressure;Samples;Min_cycle;Max_cycle;Signal;HPM_P1;HPM_P2
2022/10/17 00:01:07;;;;;;;3.08;2.10;;;;;;;18.08;100.00;96942.09;4967506;28;20070;-51
2022/10/17 00:03:37;;;;;;;4.30;2.35;;;;;;;17.88;100.00;96944.41;4966162;28;20082;-47
2022/10/17 00:06:08;;;;;;;2.45;2.00;;;;;;;18.10;100.00;96941.91;4965606;28;20119;-51
2022/10/17 00:08:39;;;;;;;2.85;2.17;;;;;;;18.00;100.00;96942.16;4966637;28;20111;-51
2022/10/17 00:11:14;;;;;;;3.15;2.33;;;;;;;17.73;100.00;96943.50;4966285;28;20073;-48
2022/10/17 00:13:43;;;;;;;4.68;2.60;;;;;;;17.88;100.00;96941.75;4966176;28;20087;-45
2022/10/17 00:16:11;;;;;;;2.20;2.00;;;;;;;17.74;100.00;96940.66;4966522;28;20070;-47
2022/10/17 00:18:39;;;;;;;3.67;2.20;;;;;;;17.20;100.00;96939.81;4966811;28;20082;-44
2022/10/17 00:21:15;;;;;;;4.00;2.70;;;;;;;16.99;100.00;96943.06;4966450;28;20066;-46
2022/10/17 00:23:45;;;;;;;5.72;2.85;;;;;;;16.83;100.00;96936.81;4966691;28;20476;-43
2022/10/17 00:26:14;;;;;;;4.22;3.00;;;;;;;16.92;100.00;96940.25;4963358;28;20066;-44
2022/10/17 00:28:42;;;;;;;4.07;3.28;;;;;;;17.04;100.00;96938.88;4964157;28;20093;-45
2022/10/17 00:31:10;;;;;;;3.55;3.00;;;;;;;17.59;100.00;96938.94;4968175;28;20082;-44
2022/10/17 00:33:39;;;;;;;4.28;3.30;;;;;;;17.76;100.00;96944.00;4968461;28;20093;-44
2022/10/17 00:36:10;;;;;;;4.10;3.10;;;;;;;17.96;100.00;96935.50;4971253;28;20678;-46
2022/10/17 00:38:38;;;;;;;4.78;2.90;;;;;;;17.94;100.00;96948.22;4984474;28;20092;-47
2022/10/17 00:41:10;;;;;;;5.47;3.00;;;;;;;18.06;100.00;96941.44;4971840;28;20070;-49
2022/10/17 00:43:56;;;;;;;3.20;2.80;;;;;;;17.85;100.00;96947.44;4969389;28;20074;-48
2022/10/17 00:46:25;;;;;;;4.78;2.80;;;;;;;17.91;100.00;96946.72;4969593;28;20563;-47
2022/10/17 00:48:55;;;;;;;4.63;2.80;;;;;;;17.91;100.00;96946.72;4968959;28;20066;-44
2022/10/17 00:51:31;;;;;;;3.08;2.75;;;;;;;18.03;100.00;96944.44;4967626;28;20062;-48
2022/10/17 00:53:59;;;;;;;4.55;3.10;;;;;;;17.78;100.00;96949.97;4968773;28;20078;-45
2022/10/17 00:56:29;;;;;;;4.60;3.35;;;;;;;18.03;100.00;96955.13;4975897;28;20078;-45
2022/10/17 00:58:58;;;;;;;6.43;3.65;;;;;;;17.93;100.00;96943.91;4969909;28;20104;-44
2022/10/17 01:01:26;;;;;;;5.70;3.50;;;;;;;17.98;100.00;96944.19;4967750;28;20082;-46
2022/10/17 01:03:54;;;;;;;5.30;3.45;;;;;;;17.99;100.00;96943.97;4967858;28;20070;-45
2022/10/17 01:06:23;;;;;;;3.67;3.10;;;;;;;17.98;100.00;96950.34;4969193;28;20097;-45
2022/10/17 01:08:51;;;;;;;3.63;2.95;;;;;;;17.79;100.00;96945.50;4969350;28;20066;-49
2022/10/17 01:11:35;;;;;;;4.43;2.65;;;;;;;17.90;100.00;96950.41;4967128;28;20074;-50
2022/10/17 01:14:07;;;;;;;3.45;2.78;;;;;;;17.80;100.00;96947.16;4965493;28;20078;-49
2022/10/17 01:16:47;;;;;;;5.68;2.72;;;;;;;17.32;100.00;96947.25;4969366;28;20080;-44
2022/10/17 01:19:35;;;;;;;3.17;2.80;;;;;;;17.50;100.00;96938.16;4968172;28;20105;-49
2022/10/17 01:22:08;;;;;;;3.10;2.80;;;;;;;17.07;100.00;96940.38;4967179;28;20090;-51
2022/10/17 01:24:47;;;;;;;3.28;2.90;;;;;;;17.49;100.00;96941.81;4969013;28;20083;-48
2022/10/17 01:27:40;;;;;;;4.05;2.90;;;;;;;17.61;100.00;96940.41;4967781;28;20156;-48
2022/10/17 01:30:37;;;;;;;3.38;3.08;;;;;;;17.74;100.00;96937.97;4982756;28;20074;-46
2022/10/17 01:33:09;;;;;;;3.30;3.00;;;;;;;17.22;100.00;96940.47;4964582;28;20078;-48
2022/10/17 01:35:40;;;;;;;4.03;3.10;;;;;;;17.23;100.00;96944.78;4968297;28;20097;-48
2022/10/17 01:38:11;;;;;;;4.30;3.65;;;;;;;17.02;100.00;96942.72;4970106;28;20066;-46
2022/10/17 01:40:43;;;;;;;5.05;3.88;;;;;;;17.09;100.00;96944.50;4968027;28;20117;-45
2022/10/17 01:43:16;;;;;;;7.15;5.40;;;;;;;16.77;100.00;96952.66;4966687;28;20097;-48
2022/10/17 01:45:49;;;;;;;8.13;4.88;;;;;;;17.04;100.00;96938.88;4967885;28;20082;-47
2022/10/17 01:48:21;;;;;;;6.32;4.70;;;;;;;17.25;100.00;96946.28;4967871;28;20081;-45
2022/10/17 01:50:52;;;;;;;3.83;3.10;;;;;;;17.15;100.00;96944.84;4967303;28;20082;-50
2022/10/17 01:53:23;;;;;;;5.07;3.22;;;;;;;16.71;100.00;96948.78;4968982;28;20083;-51
2022/10/17 01:55:54;;;;;;;4.03;3.45;;;;;;;16.95;100.00;96942.59;4968390;28;20078;-51
2022/10/17 01:58:25;;;;;;;4.72;4.05;;;;;;;17.25;100.00;96937.47;4967278;28;20517;-45
2022/10/17 02:00:55;;;;;;;7.28;4.00;;;;;;;17.26;100.00;96941.78;4967780;28;20082;-53
2022/10/17 02:03:26;;;;;;;4.88;4.07;;;;;;;17.35;100.00;96939.91;4981899;28;20544;-46
2022/10/17 02:05:54;;;;;;;5.97;4.15;;;;;;;17.30;100.00;96935.09;4964534;28;20066;-45
2022/10/17 02:08:26;;;;;;;5.93;4.50;;;;;;;16.59;100.00;96942.19;4967096;28;20082;-45
2022/10/17 02:10:58;;;;;;;9.80;4.70;;;;;;;16.73;100.00;96933.47;4968962;28;20526;-49
2022/10/17 02:13:32;;;;;;;13.65;4.97;;;;;;;16.75;100.00;96936.00;4966865;28;20082;-47
2022/10/17 02:16:18;;;;;;;4.57;3.97;;;;;;;16.73;100.00;96935.31;4965760;28;20086;-51
2022/10/17 02:19:06;;;;;;;48.58;5.38;;;;;;;16.90;100.00;96936.97;4966431;28;20533;-43
2022/10/17 02:21:40;;;;;;;11.57;4.43;;;;;;;16.72;100.00;96938.97;4965869;28;20078;-46
2022/10/17 02:24:15;;;;;;;21.13;5.13;;;;;;;16.53;100.00;96934.88;4965458;28;20090;-45
2022/10/17 02:26:50;;;;;;;10.93;4.68;;;;;;;16.75;100.00;96936.00;4965330;28;20075;-44
2022/10/17 02:29:20;;;;;;;6.82;4.38;;;;;;;16.00;100.00;96931.78;4968019;28;20121;-44
2022/10/17 02:31:52;;;;;;;6.07;4.80;;;;;;;15.64;100.00;96941.88;4969124;28;20097;-47
2022/10/17 02:34:25;;;;;;;6.85;4.78;;;;;;;15.26;100.00;96940.63;4968685;28;20085;-49
2022/10/17 02:36:56;;;;;;;5.97;4.80;;;;;;;16.02;100.00;96934.28;4968014;28;20523;-43
2022/10/17 02:39:25;;;;;;;5.45;4.50;;;;;;;15.98;100.00;96939.09;4962713;28;20106;-49
2022/10/17 02:41:54;;;;;;;5.05;4.35;;;;;;;16.58;100.00;96944.00;4969177;28;20127;-44
2022/10/17 02:44:23;;;;;;;4.88;3.90;;;;;;;16.66;100.00;96947.66;4965727;28;20105;-47
2022/10/17 02:46:55;;;;;;;3.92;3.20;;;;;;;16.56;100.00;96946.00;4966178;28;20091;-43
2022/10/17 02:49:28;;;;;;;42.42;4.68;;;;;;;16.44;100.00;96951.84;4964592;28;20097;-49
2022/10/17 02:51:58;;;;;;;25.63;5.30;;;;;;;16.30;100.00;96946.22;4969064;28;20091;-46
2022/10/17 02:54:28;;;;;;;;;;;;;;;15.59;100.00;96955.66;4965131;28;20090;-46
2022/10/17 02:57:00;;;;;;;4.25;3.45;;;;;;;15.80;100.00;96946.41;4967865;28;19969;-47
2022/10/17 02:59:30;;;;;;;4.25;3.10;;;;;;;16.16;100.00;96949.56;4966975;28;20082;-46
2022/10/17 03:02:02;;;;;;;3.80;3.40;;;;;;;16.10;100.00;96952.88;4968339;28;20094;-44
2022/10/17 03:04:33;;;;;;;5.93;3.58;;;;;;;16.38;100.00;96953.38;4963097;28;20147;-49
2022/10/17 03:07:01;;;;;;;3.83;3.30;;;;;;;16.43;100.00;96956.34;4961060;28;20805;-46
2022/10/17 03:09:29;;;;;;;4.35;3.80;;;;;;;16.43;100.00;96956.34;4965706;28;20066;-44
2022/10/17 03:11:57;;;;;;;7.85;3.25;;;;;;;16.50;100.00;96960.00;4968063;28;20481;-45
2022/10/17 03:14:26;;;;;;;4.07;3.20;;;;;;;16.28;100.00;96966.03;4967059;28;20086;-45
2022/10/17 03:16:54;;;;;;;8.63;3.67;;;;;;;16.36;100.00;96960.69;4967922;28;20447;-43
2022/10/17 03:19:22;;;;;;;14.02;4.70;;;;;;;15.79;100.00;96964.19;4963875;28;20074;-45
2022/10/17 03:21:52;;;;;;;4.57;3.30;;;;;;;15.85;100.00;96968.84;4964289;28;20135;-48
2022/10/17 03:24:20;;;;;;;4.65;3.50;;;;;;;15.44;100.00;96970.56;4961887;28;20078;-44
2022/10/17 03:26:48;;;;;;;4.82;3.80;;;;;;;15.74;100.00;96971.81;4963563;28;20556;-44
2022/10/17 03:29:16;;;;;;;3.60;3.25;;;;;;;15.88;100.00;96965.84;4964112;28;20090;-49
2022/10/17 03:31:45;;;;;;;5.88;3.70;;;;;;;16.04;100.00;96958.91;4961887;28;20766;-44
2022/10/17 03:34:15;;;;;;;5.22;3.60;;;;;;;15.95;100.00;96968.69;4963724;28;20062;-43
2022/10/17 03:36:43;;;;;;;4.38;3.40;;;;;;;15.63;100.00;96970.28;4962556;28;20081;-47
2022/10/17 03:39:13;;;;;;;4.95;3.67;;;;;;;16.04;100.00;96964.22;4954319;28;20082;-48
2022/10/17 03:41:41;;;;;;;6.63;3.20;;;;;;;16.02;100.00;96966.19;4962606;28;20074;-49
2022/10/17 03:44:10;;;;;;;7.05;3.63;;;;;;;16.16;100.00;96965.53;4961067;28;20086;-48
2022/10/17 03:46:38;;;;;;;7.03;3.95;;;;;;;15.95;100.00;96967.84;4964222;28;20078;-45
2022/10/17 03:49:08;;;;;;;5.18;3.67;;;;;;;16.09;100.00;96959.22;4965066;28;20098;-43
2022/10/17 03:51:36;;;;;;;4.75;3.47;;;;;;;15.80;100.00;96965.03;4961735;28;20093;-49
2022/10/17 03:54:04;;;;;;;6.47;3.80;;;;;;;15.78;100.00;96961.69;4963891;28;20857;-47
2022/10/17 03:56:34;;;;;;;4.65;3.22;;;;;;;15.48;100.00;96969.25;4963649;28;20478;-49
2022/10/17 03:59:02;;;;;;;4.22;3.83;;;;;;;15.74;100.00;96971.81;4962075;28;20569;-42
2022/10/17 04:01:31;;;;;;;3.88;3.13;;;;;;;15.87;100.00;96969.53;4963171;28;20086;-44
2022/10/17 04:03:59;;;;;;;3.60;3.20;;;;;;;15.92;100.00;96969.00;4970126;28;20086;-50
2022/10/17 04:06:27;;;;;;;4.85;3.30;;;;;;;15.60;100.00;96980.41;4971025;28;20485;-43
2022/10/17 04:08:55;;;;;;;5.15;3.45;;;;;;;15.63;100.00;96972.94;4974299;28;20564;-48
2022/10/17 04:11:24;;;;;;;4.82;3.47;;;;;;;15.89;100.00;96977.31;4974141;28;20549;-47
2022/10/17 04:13:54;;;;;;;13.55;4.50;;;;;;;15.29;100.00;96978.34;4974264;28;20089;-44
2022/10/17 04:16:23;;;;;;;44.22;9.48;;;;;;;15.18;100.00;96979.47;4967594;28;20553;-46
2022/10/17 04:18:54;;;;;;;14.82;4.95;;;;;;;14.59;100.00;96988.28;4967798;28;20078;-43
2022/10/17 04:21:23;;;;;;;23.35;4.47;;;;;;;14.66;100.00;96987.53;4966442;28;20094;-50
2022/10/17 04:23:54;;;;;;;8.80;3.45;;;;;;;15.25;100.00;96992.13;4973699;28;20074;-45
2022/10/17 04:26:23;;;;;;;5.82;3.40;;;;;;;15.29;100.00;96993.47;4973201;28;20089;-48
2022/10/17 04:28:51;;;;;;;3.72;3.42;;;;;;;15.60;100.00;96991.06;4971087;28;20109;-46
2022/10/17 04:31:21;;;;;;;4.13;3.58;;;;;;;15.47;100.00;96999.47;4968650;28;20078;-49
2022/10/17 04:33:50;;;;;;;4.07;2.95;;;;;;;15.32;100.00;96998.47;4972456;28;20086;-48
2022/10/17 04:36:19;;;;;;;5.57;3.40;;;;;;;15.47;100.00;96999.47;4969203;28;20094;-47
2022/10/17 04:38:48;;;;;;;5.90;3.70;;;;;;;15.58;100.00;96993.03;4973578;28;20089;-47
2022/10/17 04:41:17;;;;;;;4.43;3.33;;;;;;;15.66;100.00;96999.25;4973618;28;20473;-45
2022/10/17 04:43:46;;;;;;;5.82;3.35;;;;;;;15.62;100.00;96999.69;4973540;28;20078;-49
2022/10/17 04:46:18;;;;;;;5.20;3.20;;;;;;;15.47;100.00;96996.81;4972153;28;20101;-45
2022/10/17 04:48:48;;;;;;;5.75;3.63;;;;;;;15.04;100.00;97001.34;4973496;28;20086;-47
2022/10/17 04:51:17;;;;;;;5.13;3.95;;;;;;;14.85;100.00;97005.03;4973618;28;20090;-47
2022/10/17 04:53:51;;;;;;;4.22;3.40;;;;;;;15.23;100.00;97004.72;4973594;28;20105;-45
2022/10/17 04:56:21;;;;;;;4.05;3.28;;;;;;;15.41;100.00;97013.41;4973356;28;20545;-46
2022/10/17 04:59:07;;;;;;;8.18;3.00;;;;;;;15.33;100.00;97021.38;4971281;28;20077;-51
2022/10/17 05:01:36;;;;;;;17.30;2.90;;;;;;;15.39;100.00;97020.72;4959247;28;20093;-47
2022/10/17 05:04:05;;;;;;;10.15;2.97;;;;;;;15.25;100.00;97013.38;4970283;28;20079;-45
2022/10/17 05:06:34;;;;;;;4.70;2.20;;;;;;;15.26;100.00;97009.72;4972795;28;20088;-45
2022/10/17 05:09:02;;;;;;;14.40;3.40;;;;;;;15.08;100.00;97013.31;4973354;28;20086;-48
2022/10/17 05:11:30;;;;;;;3.30;2.92;;;;;;;15.14;100.00;97014.47;4973322;28;20075;-45
2022/10/17 05:14:00;;;;;;;6.55;2.97;;;;;;;14.63;100.00;97018.88;4973092;28;20562;-46
2022/10/17 05:16:29;;;;;;;3.80;2.80;;;;;;;14.95;100.00;97010.25;4968498;28;20075;-47
2022/10/17 05:18:58;;;;;;;5.35;3.20;;;;;;;14.70;100.00;97010.13;4972977;28;20992;-48
2022/10/17 05:21:29;;;;;;;4.32;3.35;;;;;;;15.03;100.00;97015.59;4972663;28;20067;-46
2022/10/17 05:23:58;;;;;;;4.28;3.05;;;;;;;14.95;100.00;97015.56;4962134;28;20490;-49
2022/10/17 05:26:26;;;;;;;5.32;3.47;;;;;;;15.05;100.00;97026.06;4969970;28;20161;-46
2022/10/17 05:28:54;;;;;;;5.95;3.70;;;;;;;14.57;100.00;97028.28;4967041;28;20081;-52
2022/10/17 05:31:23;;;;;;;7.68;4.20;;;;;;;14.87;100.00;97032.28;4970759;28;20093;-45
2022/10/17 05:33:51;;;;;;;5.78;4.47;;;;;;;14.88;100.00;97025.16;4972350;28;20082;-47
2022/10/17 05:36:19;;;;;;;10.50;4.32;;;;;;;15.24;100.00;97032.94;4972556;28;20070;-50
2022/10/17 05:38:50;;;;;;;5.70;4.00;;;;;;;15.36;100.00;97039.66;4973051;28;20097;-52
2022/10/17 05:41:19;;;;;;;3.97;3.33;;;;;;;15.34;100.00;97041.63;4972605;28;20082;-53
2022/10/17 05:43:49;;;;;;;13.88;3.50;;;;;;;14.94;100.00;97049.25;4969667;28;20486;-49
2022/10/17 05:46:17;;;;;;;36.35;4.20;;;;;;;13.89;100.00;97055.34;4970673;28;20090;-47
2022/10/17 05:48:45;;;;;;;37.88;3.90;;;;;;;14.40;100.00;97047.69;4970976;28;20078;-49
2022/10/17 05:51:14;;;;;;;24.50;3.72;;;;;;;14.41;100.00;97049.34;4972340;28;20097;-45
2022/10/17 05:53:42;;;;;;;3.30;2.88;;;;;;;14.72;100.00;97053.25;4972515;28;20116;-47
2022/10/17 05:56:13;;;;;;;6.00;3.40;;;;;;;14.49;100.00;97050.25;4971160;28;20089;-50
2022/10/17 05:58:41;;;;;;;;;;;;;;;13.94;100.00;97060.22;4971742;28;20078;-46
2022/10/17 06:01:20;;;;;;;5.22;3.65;;;;;;;14.29;100.00;97064.69;4966474;28;19956;-48
2022/10/17 06:03:48;;;;;;;10.45;4.38;;;;;;;14.06;100.00;97066.13;4972195;28;20542;-50
2022/10/17 06:06:18;;;;;;;9.18;3.78;;;;;;;14.96;100.00;97065.84;4971971;28;20079;-48
2022/10/17 06:08:46;;;;;;;16.98;4.10;;;;;;;14.11;100.00;97067.34;4972486;28;20094;-48
2022/10/17 06:11:16;;;;;;;14.10;5.03;;;;;;;14.78;100.00;97061.59;4972056;28;20079;-53
2022/10/17 06:13:44;;;;;;;13.90;6.97;;;;;;;14.32;100.00;97074.16;4972091;28;20074;-47
2022/10/17 06:16:12;;;;;;;13.95;4.22;;;;;;;14.30;100.00;97076.97;4971643;28;20089;-52
2022/10/17 06:18:41;;;;;;;75.05;5.45;;;;;;;13.81;100.00;97067.72;4962444;28;20079;-49
2022/10/17 06:21:10;;;;;;;71.47;5.03;;;;;;;13.60;100.00;97062.69;4970896;28;20089;-48
2022/10/17 06:23:39;;;;;;;10.47;3.33;;;;;;;14.27;100.00;97076.44;4956380;28;20513;-50
2022/10/17 06:26:07;;;;;;;9.77;3.67;;;;;;;15.00;100.00;97069.03;4967769;28;20512;-51
2022/10/17 06:28:37;;;;;;;6.55;3.75;;;;;;;15.29;100.00;97079.31;4961667;28;20093;-44
2022/10/17 06:31:06;;;;;;;4.50;3.30;;;;;;;15.26;100.00;97074.31;4970876;28;20093;-48
2022/10/17 06:33:35;;;;;;;14.20;3.20;;;;;;;14.67;100.00;97084.75;4971757;28;20105;-47
2022/10/17 06:36:04;;;;;;;20.38;3.13;;;;;;;14.46;100.00;97081.56;4971381;28;20082;-49
2022/10/17 06:38:34;;;;;;;7.65;3.10;;;;;;;14.20;100.00;97087.63;4971555;28;20094;-48
2022/10/17 06:41:07;;;;;;;4.32;3.08;;;;;;;14.54;100.00;97084.31;4966218;28;20082;-51
2022/10/17 06:43:37;;;;;;;2.80;2.55;;;;;;;15.38;100.00;97081.03;4971539;28;20085;-44
2022/10/17 06:46:06;;;;;;;5.85;2.90;;;;;;;15.71;100.00;97070.53;4971543;28;20090;-49
2022/10/17 06:48:34;;;;;;;6.90;2.85;;;;;;;15.88;100.00;97074.91;4971596;28;20081;-53
2022/10/17 06:51:04;;;;;;;2.85;2.42;;;;;;;16.29;100.00;97084.78;4971266;28;20082;-51
2022/10/17 06:53:34;;;;;;;4.65;3.00;;;;;;;16.53;100.00;97083.97;4967000;28;20089;-46
2022/10/17 06:56:03;;;;;;;3.72;2.45;;;;;;;16.76;100.00;97084.16;4968862;28;20093;-46
2022/10/17 06:58:33;;;;;;;5.00;2.60;;;;;;;16.95;100.00;97086.47;4971185;28;20074;-49
2022/10/17 07:01:04;;;;;;;4.47;2.70;;;;;;;17.02;100.00;97095.44;4970588;28;20078;-50
2022/10/17 07:03:34;;;;;;;2.85;2.47;;;;;;;17.15;100.00;97100.25;4970898;28;20050;-48
2022/10/17 07:06:02;;;;;;;4.90;3.13;;;;;;;17.26;100.00;97099.06;4971091;28;20630;-48
2022/10/17 07:08:30;;;;;;;4.68;2.67;;;;;;;17.30;100.00;97105.69;4969668;28;20506;-49
2022/10/17 07:11:09;;;;;;;4.03;2.70;;;;;;;17.65;100.00;97101.78;4966846;28;20074;-49
2022/10/17 07:13:37;;;;;;;2.40;2.20;;;;;;;17.79;100.00;97102.91;4970893;28;20070;-45
2022/10/17 07:16:08;;;;;;;2.75;2.30;;;;;;;17.97;100.00;97102.66;4967507;28;20139;-47
2022/10/17 07:18:36;;;;;;;2.90;2.55;;;;;;;17.94;100.00;97101.16;4962038;28;20155;-53
2022/10/17 07:21:07;;;;;;;4.13;2.70;;;;;;;18.40;100.00;97103.03;4964711;28;20557;-52
2022/10/17 07:23:36;;;;;;;3.00;2.65;;;;;;;18.57;100.00;97109.91;4962656;28;20078;-52
2022/10/17 07:26:06;;;;;;;6.28;2.58;;;;;;;18.87;100.00;97115.38;4971032;28;20082;-52
2022/10/17 07:28:34;;;;;;;;;;;;;;;19.06;100.00;97114.03;4971334;28;20078;-52
2022/10/17 07:31:04;;;;;;;3.80;2.58;;;;;;;19.09;100.00;97119.84;4970953;28;19957;-53
2022/10/17 07:33:34;;;;;;;3.45;2.58;;;;;;;19.29;100.00;97116.66;4970603;28;20046;-52
2022/10/17 07:36:04;;;;;;;5.13;2.78;;;;;;;19.45;100.00;97124.50;4968707;28;20066;-45
2022/10/17 07:38:33;;;;;;;3.40;2.90;;;;;;;19.68;100.00;97129.78;4969343;28;20082;-49
2022/10/17 07:41:02;;;;;;;7.13;3.03;;;;;;;19.77;100.00;97134.03;4970238;28;20090;-51
2022/10/17 07:43:31;;;;;;;4.32;3.10;;;;;;;19.84;100.00;97134.94;4970389;28;20482;-51
2022/10/17 07:46:01;;;;;;;4.20;2.90;;;;;;;19.80;100.00;97135.50;4970624;28;20190;-51
2022/10/17 07:48:29;;;;;;;4.22;3.10;;;;;;;20.13;100.00;97136.75;4965400;28;20548;-49
2022/10/17 07:51:02;;;;;;;3.97;3.08;;;;;;;20.21;100.00;97133.13;4968984;28;20085;-48
2022/10/17 07:53:30;;;;;;;2.83;2.53;;;;;;;20.27;100.00;97134.22;4966361;28;20094;-50
2022/10/17 07:55:58;;;;;;;5.78;2.75;;;;;;;19.96;100.00;97140.66;4967234;28;20462;-49
2022/10/17 07:58:27;;;;;;;3.70;3.20;;;;;;;20.71;100.00;97143.97;4970792;28;20089;-49
2022/10/17 08:00:55;;;;;;;6.03;3.00;;;;;;;20.77;100.00;97144.03;4965069;28;20094;-49
2022/10/17 08:03:24;;;;;;;5.38;3.17;;;;;;;21.21;100.00;97145.63;4970427;28;20090;-49
2022/10/17 08:05:52;;;;;;;4.55;3.03;;;;;;;21.47;100.00;97134.31;4970546;28;20074;-47
2022/10/17 08:08:21;;;;;;;5.22;2.80;;;;;;;21.61;100.00;97137.91;4970885;28;20093;-50
2022/10/17 08:10:50;;;;;;;5.00;2.77;;;;;;;20.61;100.00;97147.81;4969109;28;20092;-50
2022/10/17 08:13:18;;;;;;;4.20;3.10;;;;;;;21.55;100.00;97136.81;4965020;28;20109;-50
2022/10/17 08:15:47;;;;;;;5.47;3.40;;;;;;;20.76;100.00;97152.28;4967246;28;20067;-46
2022/10/17 08:18:16;;;;;;;8.43;3.60;;;;;;;20.99;100.00;97144.00;4964943;28;20085;-52
2022/10/17 08:20:45;;;;;;;4.50;2.90;;;;;;;22.03;100.00;97134.19;4964783;28;20093;-49
2022/10/17 08:23:13;;;;;;;8.07;3.47;;;;;;;20.88;100.00;97150.72;4970253;28;20078;-48
2022/10/17 08:25:42;;;;;;;4.72;2.85;;;;;;;21.06;100.00;97139.56;4970127;28;20094;-49
2022/10/17 08:28:11;;;;;;;7.13;3.63;;;;;;;21.60;100.00;97138.91;4970144;28;20089;-47
2022/10/17 08:30:39;;;;;;;6.47;3.20;;;;;;;22.00;100.00;97141.81;4970472;28;20090;-52
2022/10/17 08:33:07;;;;;;;7.15;3.08;;;;;;;22.57;100.00;97134.34;4967330;28;20086;-52
2022/10/17 08:35:36;;;;;;;7.55;3.30;;;;;;;22.34;100.00;97142.78;4968697;28;20090;-48
2022/10/17 08:38:04;;;;;;;5.35;3.33;;;;;;;22.07;100.00;97139.97;4970171;28;20090;-49
2022/10/17 08:40:34;;;;;;;5.55;3.22;;;;;;;21.95;100.00;97136.19;4970209;28;20082;-48
2022/10/17 08:43:14;;;;;;;5.15;3.10;;;;;;;21.95;100.00;97136.19;4970178;28;20074;-48
2022/10/17 08:45:46;;;;;;;4.85;3.20;;;;;;;22.10;100.00;97142.25;4958737;28;20562;-47
2022/10/17 08:48:17;;;;;;;6.07;3.50;;;;;;;22.12;100.00;97139.38;4966372;28;20529;-49
2022/10/17 08:50:48;;;;;;;4.10;3.05;;;;;;;22.92;100.00;97135.91;4971017;28;20553;-52
2022/10/17 08:53:20;;;;;;;5.65;2.97;;;;;;;23.21;100.00;97131.13;4974081;28;20090;-50
2022/10/17 08:55:49;;;;;;;8.70;3.30;;;;;;;23.39;100.00;97133.19;4973882;28;20078;-52
2022/10/17 08:58:22;;;;;;;5.50;2.88;;;;;;;23.06;100.00;97142.13;4974406;28;20093;-48
2022/10/17 09:01:00;;;;;;;4.53;3.20;;;;;;;23.30;100.00;97142.53;4973474;28;20578;-52
2022/10/17 09:03:39;;;;;;;6.00;3.00;;;;;;;23.87;100.00;97139.09;4972589;28;20077;-45
2022/10/17 09:06:15;;;;;;;8.48;3.05;;;;;;;23.81;100.00;97133.72;4973436;28;20078;-48
2022/10/17 09:08:51;;;;;;;5.05;2.97;;;;;;;24.21;100.00;97134.41;4962588;28;20082;-46
2022/10/17 09:11:31;;;;;;;5.35;3.00;;;;;;;24.74;100.00;97130.63;4971039;28;20087;-49
2022/10/17 09:14:11;;;;;;;5.30;2.60;;;;;;;23.88;100.00;97135.38;4965675;28;20546;-51
2022/10/17 09:16:50;;;;;;;5.68;2.60;;;;;;;24.78;100.00;97131.84;4970981;28;20078;-52
2022/10/17 09:19:20;;;;;;;5.30;2.80;;;;;;;24.81;100.00;97131.38;4971097;28;20110;-52
2022/10/17 09:21:52;;;;;;;5.43;2.70;;;;;;;24.66;100.00;97129.00;4967218;28;20478;-48
2022/10/17 09:24:24;;;;;;;4.50;2.60;;;;;;;24.99;100.00;97126.09;4973557;28;20489;-51
2022/10/17 09:26:53;;;;;;;4.28;2.78;;;;;;;25.23;100.00;97121.75;4973230;28;20078;-50
2022/10/17 09:29:24;;;;;;;5.60;2.70;;;;;;;25.31;100.00;97131.44;4970828;28;20067;-49
2022/10/17 09:32:01;;;;;;;6.05;3.00;;;;;;;25.18;100.00;97137.78;4972883;28;20082;-49
2022/10/17 09:34:32;;;;;;;5.28;2.78;;;;;;;25.26;100.00;97145.63;4973410;28;20078;-47
2022/10/17 09:37:02;;;;;;;4.63;2.55;;;;;;;25.09;100.00;97150.72;4973451;28;20101;-52
2022/10/17 09:39:31;;;;;;;4.57;2.63;;;;;;;25.47;100.00;97136.28;4973046;28;20078;-51
2022/10/17 09:42:01;;;;;;;4.80;2.90;;;;;;;25.05;100.00;97136.00;4971784;28;20094;-49
2022/10/17 09:44:32;;;;;;;4.18;2.70;;;;;;;25.66;99.06;97133.59;4968910;28;20078;-51
2022/10/17 09:47:26;;;;;;;4.78;2.95;;;;;;;25.29;100.00;97142.47;4972553;28;20094;-50
2022/10/17 09:49:54;;;;;;;3.88;2.63;;;;;;;25.15;99.58;97143.63;4968411;28;20097;-48
2022/10/17 09:52:27;;;;;;;4.18;3.00;;;;;;;24.69;100.00;97144.75;4972272;28;20545;-52
2022/10/17 09:55:17;;;;;;;5.03;3.33;;;;;;;25.92;84.40;97135.22;4972725;28;20046;-52
2022/10/17 09:57:54;;;;;;;4.90;3.10;;;;;;;25.33;100.00;97142.88;4971905;28;20548;-51
2022/10/17 10:00:27;;;;;;;5.50;3.35;;;;;;;25.22;100.00;97154.38;4970291;28;20083;-47
2022/10/17 10:03:16;;;;;;;7.57;3.30;;;;;;;25.50;95.52;97143.13;4970786;28;20078;-49
2022/10/17 10:06:01;;;;;;;6.85;3.40;;;;;;;24.86;100.00;97151.28;4971456;28;20089;-52
2022/10/17 10:08:31;;;;;;;7.53;3.30;;;;;;;25.40;100.00;97156.31;4958348;28;20093;-51
2022/10/17 10:11:05;;;;;;;7.43;3.70;;;;;;;25.06;100.00;97161.94;4971879;28;20465;-50
2022/10/17 10:13:36;;;;;;;8.13;3.30;;;;;;;25.71;100.00;97158.09;4968659;28;20055;-52
2022/10/17 10:16:23;;;;;;;7.15;3.17;;;;;;;25.17;100.00;97162.31;4972616;28;20051;-49
2022/10/17 10:18:51;;;;;;;4.18;3.08;;;;;;;25.62;96.63;97157.53;4971994;28;20090;-54
2022/10/17 10:21:21;;;;;;;4.90;2.88;;;;;;;25.23;100.00;97161.44;4971711;28;20093;-52
2022/10/17 10:24:12;;;;;;;8.02;3.20;;;;;;;25.31;100.00;97161.97;4971930;28;20086;-46
2022/10/17 10:26:41;;;;;;;6.65;3.30;;;;;;;25.40;95.27;97149.03;4971625;28;20078;-49
2022/10/17 10:29:22;;;;;;;8.05;3.50;;;;;;;25.83;96.01;97150.09;4967661;28;20470;-49
2022/10/17 10:31:52;;;;;;;4.72;3.47;;;;;;;25.53;100.00;97158.88;4967696;28;20078;-52
2022/10/17 10:34:23;;;;;;;4.25;3.33;;;;;;;26.27;83.24;97149.75;4972834;28;20078;-52
2022/10/17 10:36:59;;;;;;;5.20;3.30;;;;;;;26.73;75.33;97140.19;4970349;28;20078;-45
2022/10/17 10:39:37;;;;;;;7.75;3.33;;;;;;;26.83;74.16;97145.06;4969224;28;20078;-48
2022/10/17 10:42:09;;;;;;;6.05;3.50;;;;;;;27.18;70.14;97141.63;4967407;28;20109;-49
2022/10/17 10:44:39;;;;;;;4.72;3.10;;;;;;;26.64;81.39;97143.50;4972000;28;20074;-45
2022/10/17 10:47:19;;;;;;;;;;;;;;;26.48;82.01;97143.06;4972346;28;20074;-48
2022/10/17 10:49:50;;;;;;;4.80;3.22;;;;;;;27.10;78.82;97142.78;4971981;28;19969;-50
2022/10/17 10:52:29;;;;;;;6.45;3.30;;;;;;;27.02;72.73;97145.81;4971326;28;20074;-47
2022/10/17 10:55:04;;;;;;;5.30;3.42;;;;;;;27.59;70.84;97142.59;4968706;28;20094;-49
2022/10/17 10:57:34;;;;;;;4.25;3.03;;;;;;;27.56;68.75;97143.88;4971105;28;20095;-47
2022/10/17 11:00:04;;;;;;;;;;;;;;;28.36;60.02;97150.50;4968937;28;20081;-47
2022/10/17 11:02:38;;;;;;;5.75;3.20;;;;;;;28.14;60.26;97142.19;4960846;28;20061;-44
2022/10/17 11:05:12;;;;;;;6.68;3.33;;;;;;;27.77;66.83;97142.50;4965444;28;20528;-46
2022/10/17 11:07:43;;;;;;;5.53;2.88;;;;;;;26.88;72.94;97138.97;4963175;28;20062;-49
2022/10/17 11:10:14;;;;;;;6.07;3.03;;;;;;;28.36;63.37;97131.53;4971516;28;20073;-49
2022/10/17 11:12:46;;;;;;;4.03;2.90;;;;;;;28.70;57.72;97132.47;4970589;28;20078;-52
2022/10/17 11:15:21;;;;;;;7.80;2.70;;;;;;;28.49;58.79;97133.94;4970569;28;20077;-51
2022/10/17 11:17:56;;;;;;;4.78;2.80;;;;;;;28.66;56.35;97133.19;4971231;28;20067;-51
2022/10/17 11:20:30;;;;;;;5.72;2.38;;;;;;;28.81;55.80;97130.75;4970930;28;20162;-49
2022/10/17 11:23:04;;;;;;;3.60;2.50;;;;;;;28.16;62.17;97127.31;4967499;28;20081;-50
2022/10/17 11:25:34;;;;;;;3.70;2.50;;;;;;;28.65;59.15;97131.53;4964848;28;20075;-46
2022/10/17 11:28:04;;;;;;;6.72;2.25;;;;;;;28.31;54.39;97132.22;4970785;28;20078;-52
2022/10/17 11:30:40;;;;;;;3.88;2.30;;;;;;;28.70;53.73;97128.91;4971127;28;20522;-53
2022/10/17 11:33:12;;;;;;;2.42;2.00;;;;;;;28.11;55.00;97123.69;4965577;28;20086;-51
2022/10/17 11:35:42;;;;;;;5.25;2.10;;;;;;;29.17;50.58;97123.22;4967927;28;20085;-48
2022/10/17 11:38:16;;;;;;;2.47;1.80;;;;;;;28.14;53.90;97125.91;4971209;28;20081;-46
2022/10/17 11:40:46;;;;;;;2.28;2.00;;;;;;;27.55;55.61;97123.28;4970120;28;20104;-47
2022/10/17 11:43:17;;;;;;;5.70;2.10;;;;;;;28.33;56.22;97129.28;4970693;28;20082;-45
2022/10/17 11:45:48;;;;;;;3.40;2.33;;;;;;;28.50;51.91;97132.09;4970667;28;20458;-52